sensor_id;sensor_type;location;lat;lon;timestamp;temperature;humidity
75134;HTU21D;73631;44.326;40.200;2024-01-30T00:00:28;-1.32;71.39
75134;HTU21D;73631;44.326;40.200;2024-01-30T00:02:55;-1.34;71.36
75134;HTU21D;73631;44.326;40.200;2024-01-30T00:05:21;-1.36;71.28
75134;HTU21D;73631;44.326;40.200;2024-01-30T00:07:48;-1.38;71.32
75134;HTU21D;73631;44.326;40.200;2024-01-30T00:10:14;-1.39;71.39
75134;HTU21D;73631;44.326;40.200;2024-01-30T00:12:41;-1.36;71.42
75134;HTU21D;73631;44.326;40.200;2024-01-30T00:15:07;-1.34;71.43
75134;HTU21D;73631;44.326;40.200;2024-01-30T00:17:36;-1.33;71.47
75134;HTU21D;73631;44.326;40.200;2024-01-30T00:20:03;-1.32;71.42
75134;HTU21D;73631;44.326;40.200;2024-01-30T00:22:32;-1.32;71.39
75134;HTU21D;73631;44.326;40.200;2024-01-30T00:24:58;-1.32;71.37
75134;HTU21D;73631;44.326;40.200;2024-01-30T00:27:25;-1.33;71.35
75134;HTU21D;73631;44.326;40.200;2024-01-30T00:29:52;-1.32;71.38
75134;HTU21D;73631;44.326;40.200;2024-01-30T00:32:19;-1.32;71.36
75134;HTU21D;73631;44.326;40.200;2024-01-30T00:34:45;-1.30;71.38
75134;HTU21D;73631;44.326;40.200;2024-01-30T00:37:11;-1.31;71.35
75134;HTU21D;73631;44.326;40.200;2024-01-30T00:39:38;-1.30;71.35
75134;HTU21D;73631;44.326;40.200;2024-01-30T00:42:04;-1.32;71.34
75134;HTU21D;73631;44.326;40.200;2024-01-30T00:44:31;-1.31;71.32
75134;HTU21D;73631;44.326;40.200;2024-01-30T00:46:57;-1.32;71.29
75134;HTU21D;73631;44.326;40.200;2024-01-30T00:49:24;-1.33;71.27
75134;HTU21D;73631;44.326;40.200;2024-01-30T00:51:50;-1.33;71.29
75134;HTU21D;73631;44.326;40.200;2024-01-30T00:54:16;-1.34;71.23
75134;HTU21D;73631;44.326;40.200;2024-01-30T00:56:43;-1.35;71.21
75134;HTU21D;73631;44.326;40.200;2024-01-30T00:59:11;-1.36;71.23
75134;HTU21D;73631;44.326;40.200;2024-01-30T01:01:37;-1.35;71.22
75134;HTU21D;73631;44.326;40.200;2024-01-30T01:04:04;-1.36;71.22
75134;HTU21D;73631;44.326;40.200;2024-01-30T01:06:30;-1.36;71.24
75134;HTU21D;73631;44.326;40.200;2024-01-30T01:08:57;-1.36;71.19
75134;HTU21D;73631;44.326;40.200;2024-01-30T01:11:23;-1.39;71.18
75134;HTU21D;73631;44.326;40.200;2024-01-30T01:13:49;-1.40;71.13
75134;HTU21D;73631;44.326;40.200;2024-01-30T01:16:16;-1.41;71.10
75134;HTU21D;73631;44.326;40.200;2024-01-30T01:18:42;-1.43;71.10
75134;HTU21D;73631;44.326;40.200;2024-01-30T01:21:08;-1.45;71.10
75134;HTU21D;73631;44.326;40.200;2024-01-30T01:23:35;-1.48;71.06
75134;HTU21D;73631;44.326;40.200;2024-01-30T01:26:01;-1.52;71.08
75134;HTU21D;73631;44.326;40.200;2024-01-30T01:28:28;-1.53;71.08
75134;HTU21D;73631;44.326;40.200;2024-01-30T01:30:54;-1.54;71.06
75134;HTU21D;73631;44.326;40.200;2024-01-30T01:33:25;-1.56;71.06
75134;HTU21D;73631;44.326;40.200;2024-01-30T01:35:51;-1.57;71.11
75134;HTU21D;73631;44.326;40.200;2024-01-30T01:38:17;-1.58;71.14
75134;HTU21D;73631;44.326;40.200;2024-01-30T01:40:44;-1.59;71.17
75134;HTU21D;73631;44.326;40.200;2024-01-30T01:43:10;-1.61;71.16
75134;HTU21D;73631;44.326;40.200;2024-01-30T01:45:37;-1.60;71.18
75134;HTU21D;73631;44.326;40.200;2024-01-30T01:48:03;-1.62;71.18
75134;HTU21D;73631;44.326;40.200;2024-01-30T01:50:30;-1.64;71.16
75134;HTU21D;73631;44.326;40.200;2024-01-30T01:52:57;-1.67;71.19
75134;HTU21D;73631;44.326;40.200;2024-01-30T01:55:25;-1.69;71.19
75134;HTU21D;73631;44.326;40.200;2024-01-30T01:57:54;-1.70;71.21
75134;HTU21D;73631;44.326;40.200;2024-01-30T02:00:21;-1.73;71.20
75134;HTU21D;73631;44.326;40.200;2024-01-30T02:02:47;-1.73;71.19
75134;HTU21D;73631;44.326;40.200;2024-01-30T02:05:15;-1.75;71.16
75134;HTU21D;73631;44.326;40.200;2024-01-30T02:07:43;-1.78;71.13
75134;HTU21D;73631;44.326;40.200;2024-01-30T02:10:09;-1.80;71.11
75134;HTU21D;73631;44.326;40.200;2024-01-30T02:12:36;-1.84;71.10
75134;HTU21D;73631;44.326;40.200;2024-01-30T02:15:03;-1.87;71.13
75134;HTU21D;73631;44.326;40.200;2024-01-30T02:17:31;-1.87;71.10
75134;HTU21D;73631;44.326;40.200;2024-01-30T02:19:57;-1.90;71.10
75134;HTU21D;73631;44.326;40.200;2024-01-30T02:22:24;-1.90;71.02
75134;HTU21D;73631;44.326;40.200;2024-01-30T02:24:50;-1.93;70.95
75134;HTU21D;73631;44.326;40.200;2024-01-30T02:27:17;-1.98;70.95
75134;HTU21D;73631;44.326;40.200;2024-01-30T02:29:43;-2.00;70.97
75134;HTU21D;73631;44.326;40.200;2024-01-30T02:32:09;-2.04;70.97
75134;HTU21D;73631;44.326;40.200;2024-01-30T02:34:36;-2.07;71.00
75134;HTU21D;73631;44.326;40.200;2024-01-30T02:37:02;-2.10;71.06
75134;HTU21D;73631;44.326;40.200;2024-01-30T02:39:29;-2.12;71.07
75134;HTU21D;73631;44.326;40.200;2024-01-30T02:41:55;-2.15;71.05
75134;HTU21D;73631;44.326;40.200;2024-01-30T02:44:23;-2.20;71.03
75134;HTU21D;73631;44.326;40.200;2024-01-30T02:46:49;-2.22;71.06
75134;HTU21D;73631;44.326;40.200;2024-01-30T02:49:15;-2.26;71.06
75134;HTU21D;73631;44.326;40.200;2024-01-30T02:51:42;-2.30;71.08
75134;HTU21D;73631;44.326;40.200;2024-01-30T02:54:08;-2.32;71.14
75134;HTU21D;73631;44.326;40.200;2024-01-30T02:56:35;-2.33;71.16
75134;HTU21D;73631;44.326;40.200;2024-01-30T02:59:01;-2.35;71.19
75134;HTU21D;73631;44.326;40.200;2024-01-30T03:01:28;-2.35;71.24
75134;HTU21D;73631;44.326;40.200;2024-01-30T03:03:54;-2.38;71.26
75134;HTU21D;73631;44.326;40.200;2024-01-30T03:06:20;-2.38;71.35
75134;HTU21D;73631;44.326;40.200;2024-01-30T03:08:48;-2.41;71.39
75134;HTU21D;73631;44.326;40.200;2024-01-30T03:11:15;-2.41;71.45
75134;HTU21D;73631;44.326;40.200;2024-01-30T03:13:41;-2.39;71.46
75134;HTU21D;73631;44.326;40.200;2024-01-30T03:16:08;-2.41;71.44
75134;HTU21D;73631;44.326;40.200;2024-01-30T03:18:34;-2.41;71.43
75134;HTU21D;73631;44.326;40.200;2024-01-30T03:21:01;-2.39;71.45
75134;HTU21D;73631;44.326;40.200;2024-01-30T03:23:27;-2.42;71.43
75134;HTU21D;73631;44.326;40.200;2024-01-30T03:25:53;-2.42;71.42
75134;HTU21D;73631;44.326;40.200;2024-01-30T03:28:20;-2.41;71.38
75134;HTU21D;73631;44.326;40.200;2024-01-30T03:30:46;-2.42;71.35
75134;HTU21D;73631;44.326;40.200;2024-01-30T03:33:13;-2.41;71.38
75134;HTU21D;73631;44.326;40.200;2024-01-30T03:35:39;-2.39;71.35
75134;HTU21D;73631;44.326;40.200;2024-01-30T03:38:06;-2.42;71.35
75134;HTU21D;73631;44.326;40.200;2024-01-30T03:40:32;-2.44;71.35
75134;HTU21D;73631;44.326;40.200;2024-01-30T03:42:59;-2.43;71.42
75134;HTU21D;73631;44.326;40.200;2024-01-30T03:45:25;-2.41;71.45
75134;HTU21D;73631;44.326;40.200;2024-01-30T03:47:51;-2.42;71.45
75134;HTU21D;73631;44.326;40.200;2024-01-30T03:50:18;-2.39;71.39
75134;HTU21D;73631;44.326;40.200;2024-01-30T03:52:44;-2.39;71.36
75134;HTU21D;73631;44.326;40.200;2024-01-30T03:55:11;-2.39;71.33
75134;HTU21D;73631;44.326;40.200;2024-01-30T03:57:37;-2.41;71.32
75134;HTU21D;73631;44.326;40.200;2024-01-30T04:00:04;-2.42;71.34
75134;HTU21D;73631;44.326;40.200;2024-01-30T04:02:38;-2.42;71.32
75134;HTU21D;73631;44.326;40.200;2024-01-30T04:05:05;-2.42;71.32
75134;HTU21D;73631;44.326;40.200;2024-01-30T04:07:31;-2.43;71.34
75134;HTU21D;73631;44.326;40.200;2024-01-30T04:09:58;-2.42;71.38
75134;HTU21D;73631;44.326;40.200;2024-01-30T04:12:24;-2.42;71.45
75134;HTU21D;73631;44.326;40.200;2024-01-30T04:14:51;-2.41;71.46
75134;HTU21D;73631;44.326;40.200;2024-01-30T04:17:17;-2.38;71.48
75134;HTU21D;73631;44.326;40.200;2024-01-30T04:19:44;-2.36;71.50
75134;HTU21D;73631;44.326;40.200;2024-01-30T04:22:10;-2.35;71.51
75134;HTU21D;73631;44.326;40.200;2024-01-30T04:24:36;-2.34;71.48
75134;HTU21D;73631;44.326;40.200;2024-01-30T04:27:03;-2.35;71.47
75134;HTU21D;73631;44.326;40.200;2024-01-30T04:29:30;-2.36;71.41
75134;HTU21D;73631;44.326;40.200;2024-01-30T04:31:56;-2.36;71.38
75134;HTU21D;73631;44.326;40.200;2024-01-30T04:34:22;-2.36;71.42
75134;HTU21D;73631;44.326;40.200;2024-01-30T04:36:49;-2.34;71.49
75134;HTU21D;73631;44.326;40.200;2024-01-30T04:39:16;-2.34;71.47
75134;HTU21D;73631;44.326;40.200;2024-01-30T04:41:42;-2.35;71.47
75134;HTU21D;73631;44.326;40.200;2024-01-30T04:44:08;-2.35;71.49
75134;HTU21D;73631;44.326;40.200;2024-01-30T04:46:35;-2.34;71.51
75134;HTU21D;73631;44.326;40.200;2024-01-30T04:49:01;-2.33;71.52
75134;HTU21D;73631;44.326;40.200;2024-01-30T04:51:29;-2.31;71.48
75134;HTU21D;73631;44.326;40.200;2024-01-30T04:53:56;-2.30;71.45
75134;HTU21D;73631;44.326;40.200;2024-01-30T04:56:22;-2.30;71.39
75134;HTU21D;73631;44.326;40.200;2024-01-30T04:58:48;-2.31;71.31
75134;HTU21D;73631;44.326;40.200;2024-01-30T05:01:17;-2.31;71.31
75134;HTU21D;73631;44.326;40.200;2024-01-30T05:03:44;-2.33;71.34
75134;HTU21D;73631;44.326;40.200;2024-01-30T05:06:10;-2.33;71.36
75134;HTU21D;73631;44.326;40.200;2024-01-30T05:08:37;-2.33;71.31
75134;HTU21D;73631;44.326;40.200;2024-01-30T05:11:05;-2.32;71.32
75134;HTU21D;73631;44.326;40.200;2024-01-30T05:13:31;-2.34;71.36
75134;HTU21D;73631;44.326;40.200;2024-01-30T05:15:58;-2.32;71.44
75134;HTU21D;73631;44.326;40.200;2024-01-30T05:18:24;-2.30;71.47
75134;HTU21D;73631;44.326;40.200;2024-01-30T05:20:51;-2.29;71.50
75134;HTU21D;73631;44.326;40.200;2024-01-30T05:23:17;-2.26;71.49
75134;HTU21D;73631;44.326;40.200;2024-01-30T05:25:43;-2.27;71.48
75134;HTU21D;73631;44.326;40.200;2024-01-30T05:28:10;-2.22;71.51
75134;HTU21D;73631;44.326;40.200;2024-01-30T05:30:36;-2.21;71.54
75134;HTU21D;73631;44.326;40.200;2024-01-30T05:33:03;-2.17;71.56
75134;HTU21D;73631;44.326;40.200;2024-01-30T05:35:30;-2.15;71.55
75134;HTU21D;73631;44.326;40.200;2024-01-30T05:37:56;-2.15;71.57
75134;HTU21D;73631;44.326;40.200;2024-01-30T05:40:22;-2.13;71.58
75134;HTU21D;73631;44.326;40.200;2024-01-30T05:42:49;-2.10;71.58
75134;HTU21D;73631;44.326;40.200;2024-01-30T05:45:15;-2.08;71.55
75134;HTU21D;73631;44.326;40.200;2024-01-30T05:47:42;-2.07;71.52
75134;HTU21D;73631;44.326;40.200;2024-01-30T05:50:08;-2.06;71.50
75134;HTU21D;73631;44.326;40.200;2024-01-30T05:52:34;-2.05;71.48
75134;HTU21D;73631;44.326;40.200;2024-01-30T05:55:01;-2.07;71.41
75134;HTU21D;73631;44.326;40.200;2024-01-30T05:57:29;-2.07;71.38
75134;HTU21D;73631;44.326;40.200;2024-01-30T05:59:55;-2.08;71.39
75134;HTU21D;73631;44.326;40.200;2024-01-30T06:02:21;-2.07;71.46
75134;HTU21D;73631;44.326;40.200;2024-01-30T06:04:48;-2.04;71.49
75134;HTU21D;73631;44.326;40.200;2024-01-30T06:07:14;-2.03;71.42
75134;HTU21D;73631;44.326;40.200;2024-01-30T06:09:41;-2.07;71.38
75134;HTU21D;73631;44.326;40.200;2024-01-30T06:12:07;-2.12;71.44
75134;HTU21D;73631;44.326;40.200;2024-01-30T06:14:34;-2.12;71.51
75134;HTU21D;73631;44.326;40.200;2024-01-30T06:17:00;-2.12;71.60
75134;HTU21D;73631;44.326;40.200;2024-01-30T06:19:27;-2.10;71.67
75134;HTU21D;73631;44.326;40.200;2024-01-30T06:21:53;-2.08;71.67
75134;HTU21D;73631;44.326;40.200;2024-01-30T06:24:19;-2.06;71.61
75134;HTU21D;73631;44.326;40.200;2024-01-30T06:26:46;-2.04;71.55
75134;HTU21D;73631;44.326;40.200;2024-01-30T06:29:12;-2.03;71.58
75134;HTU21D;73631;44.326;40.200;2024-01-30T06:31:42;-1.99;71.59
75134;HTU21D;73631;44.326;40.200;2024-01-30T06:34:11;-1.97;71.61
75134;HTU21D;73631;44.326;40.200;2024-01-30T06:36:38;-1.95;71.61
75134;HTU21D;73631;44.326;40.200;2024-01-30T06:39:05;-1.91;71.70
75134;HTU21D;73631;44.326;40.200;2024-01-30T06:41:31;-1.86;71.71
75134;HTU21D;73631;44.326;40.200;2024-01-30T06:43:57;-1.83;71.71
75134;HTU21D;73631;44.326;40.200;2024-01-30T06:46:24;-1.77;71.67
75134;HTU21D;73631;44.326;40.200;2024-01-30T06:48:51;-1.75;71.58
75134;HTU21D;73631;44.326;40.200;2024-01-30T06:51:17;-1.72;71.62
75134;HTU21D;73631;44.326;40.200;2024-01-30T06:53:44;-1.64;71.69
75134;HTU21D;73631;44.326;40.200;2024-01-30T06:56:11;-1.56;71.90
75134;HTU21D;73631;44.326;40.200;2024-01-30T06:58:37;-1.48;71.81
75134;HTU21D;73631;44.326;40.200;2024-01-30T07:01:06;-1.42;71.84
75134;HTU21D;73631;44.326;40.200;2024-01-30T07:03:32;-1.39;71.71
75134;HTU21D;73631;44.326;40.200;2024-01-30T07:05:59;-1.34;71.67
75134;HTU21D;73631;44.326;40.200;2024-01-30T07:08:27;-1.33;71.58
75134;HTU21D;73631;44.326;40.200;2024-01-30T07:10:54;-1.31;71.62
75134;HTU21D;73631;44.326;40.200;2024-01-30T07:13:21;-1.29;71.52
75134;HTU21D;73631;44.326;40.200;2024-01-30T07:15:50;-1.26;71.56
75134;HTU21D;73631;44.326;40.200;2024-01-30T07:18:16;-1.23;71.55
75134;HTU21D;73631;44.326;40.200;2024-01-30T07:20:42;-1.20;71.58
75134;HTU21D;73631;44.326;40.200;2024-01-30T07:23:13;-1.13;71.61
75134;HTU21D;73631;44.326;40.200;2024-01-30T07:25:41;-1.08;71.56
75134;HTU21D;73631;44.326;40.200;2024-01-30T07:28:08;-1.05;71.46
75134;HTU21D;73631;44.326;40.200;2024-01-30T07:30:38;-1.01;71.45
75134;HTU21D;73631;44.326;40.200;2024-01-30T07:33:04;-0.96;71.49
75134;HTU21D;73631;44.326;40.200;2024-01-30T07:35:31;-0.96;71.40
75134;HTU21D;73631;44.326;40.200;2024-01-30T07:37:57;-0.91;71.41
75134;HTU21D;73631;44.326;40.200;2024-01-30T07:40:24;-0.86;71.42
75134;HTU21D;73631;44.326;40.200;2024-01-30T07:42:50;-0.83;71.35
75134;HTU21D;73631;44.326;40.200;2024-01-30T07:45:17;-0.80;71.35
75134;HTU21D;73631;44.326;40.200;2024-01-30T07:47:51;-0.73;71.31
75134;HTU21D;73631;44.326;40.200;2024-01-30T07:50:17;-0.69;71.29
75134;HTU21D;73631;44.326;40.200;2024-01-30T07:52:45;-0.66;71.23
75134;HTU21D;73631;44.326;40.200;2024-01-30T07:58:41;-0.47;71.45
75134;HTU21D;73631;44.326;40.200;2024-01-30T08:01:08;-0.41;71.49
75134;HTU21D;73631;44.326;40.200;2024-01-30T08:03:35;-0.34;71.36
75134;HTU21D;73631;44.326;40.200;2024-01-30T08:06:02;-0.25;71.35
75134;HTU21D;73631;44.326;40.200;2024-01-30T08:08:29;-0.17;71.34
75134;HTU21D;73631;44.326;40.200;2024-01-30T08:10:55;-0.09;71.27
75134;HTU21D;73631;44.326;40.200;2024-01-30T08:13:22;-0.03;71.07
75134;HTU21D;73631;44.326;40.200;2024-01-30T08:15:48;-0.00;71.19
75134;HTU21D;73631;44.326;40.200;2024-01-30T08:18:14;0.09;71.20
75134;HTU21D;73631;44.326;40.200;2024-01-30T08:20:41;0.21;71.22
75134;HTU21D;73631;44.326;40.200;2024-01-30T08:23:07;0.29;71.07
75134;HTU21D;73631;44.326;40.200;2024-01-30T08:25:34;0.42;71.21
75134;HTU21D;73631;44.326;40.200;2024-01-30T08:28:00;0.55;71.02
75134;HTU21D;73631;44.326;40.200;2024-01-30T08:30:27;0.69;70.96
75134;HTU21D;73631;44.326;40.200;2024-01-30T08:32:53;0.82;71.03
75134;HTU21D;73631;44.326;40.200;2024-01-30T08:35:20;1.03;70.91
75134;HTU21D;73631;44.326;40.200;2024-01-30T08:37:46;1.20;70.76
75134;HTU21D;73631;44.326;40.200;2024-01-30T08:40:12;1.41;70.59
75134;HTU21D;73631;44.326;40.200;2024-01-30T08:42:39;1.60;70.54
75134;HTU21D;73631;44.326;40.200;2024-01-30T08:45:05;1.83;70.49
75134;HTU21D;73631;44.326;40.200;2024-01-30T08:47:32;2.01;70.10
75134;HTU21D;73631;44.326;40.200;2024-01-30T08:49:59;2.13;69.78
75134;HTU21D;73631;44.326;40.200;2024-01-30T08:52:25;2.21;69.74
75134;HTU21D;73631;44.326;40.200;2024-01-30T08:54:52;2.34;69.79
75134;HTU21D;73631;44.326;40.200;2024-01-30T08:57:19;2.47;69.70
75134;HTU21D;73631;44.326;40.200;2024-01-30T08:59:46;2.68;69.84
75134;HTU21D;73631;44.326;40.200;2024-01-30T09:02:14;2.89;69.53
75134;HTU21D;73631;44.326;40.200;2024-01-30T09:04:42;3.06;69.34
75134;HTU21D;73631;44.326;40.200;2024-01-30T09:07:09;3.25;69.33
75134;HTU21D;73631;44.326;40.200;2024-01-30T09:09:37;3.47;69.16
75134;HTU21D;73631;44.326;40.200;2024-01-30T09:12:06;3.71;69.07
75134;HTU21D;73631;44.326;40.200;2024-01-30T09:14:39;3.92;68.65
75134;HTU21D;73631;44.326;40.200;2024-01-30T09:17:06;3.95;68.42
75134;HTU21D;73631;44.326;40.200;2024-01-30T09:19:32;4.02;68.59
75134;HTU21D;73631;44.326;40.200;2024-01-30T09:21:59;4.17;68.55
75134;HTU21D;73631;44.326;40.200;2024-01-30T09:24:26;4.32;68.49
75134;HTU21D;73631;44.326;40.200;2024-01-30T09:26:53;4.49;68.31
75134;HTU21D;73631;44.326;40.200;2024-01-30T09:29:21;4.68;68.13
75134;HTU21D;73631;44.326;40.200;2024-01-30T09:31:48;4.83;67.82
75134;HTU21D;73631;44.326;40.200;2024-01-30T09:34:14;4.92;67.74
75134;HTU21D;73631;44.326;40.200;2024-01-30T09:36:41;4.98;67.51
75134;HTU21D;73631;44.326;40.200;2024-01-30T09:39:07;5.00;67.50
75134;HTU21D;73631;44.326;40.200;2024-01-30T09:42:26;5.03;67.43
75134;HTU21D;73631;44.326;40.200;2024-01-30T09:44:26;5.09;67.43
75134;HTU21D;73631;44.326;40.200;2024-01-30T09:46:55;5.16;67.44
75134;HTU21D;73631;44.326;40.200;2024-01-30T09:49:25;5.26;67.43
75134;HTU21D;73631;44.326;40.200;2024-01-30T09:51:53;5.37;67.27
75134;HTU21D;73631;44.326;40.200;2024-01-30T09:54:20;5.51;67.13
75134;HTU21D;73631;44.326;40.200;2024-01-30T09:56:47;5.60;66.91
75134;HTU21D;73631;44.326;40.200;2024-01-30T09:59:14;5.69;66.80
75134;HTU21D;73631;44.326;40.200;2024-01-30T10:01:45;5.74;66.60
75134;HTU21D;73631;44.326;40.200;2024-01-30T10:04:13;5.83;66.59
75134;HTU21D;73631;44.326;40.200;2024-01-30T10:06:40;5.94;66.50
75134;HTU21D;73631;44.326;40.200;2024-01-30T10:09:09;6.08;66.58
75134;HTU21D;73631;44.326;40.200;2024-01-30T10:11:39;6.29;66.35
75134;HTU21D;73631;44.326;40.200;2024-01-30T10:14:07;6.44;66.09
75134;HTU21D;73631;44.326;40.200;2024-01-30T10:16:38;6.58;65.74
75134;HTU21D;73631;44.326;40.200;2024-01-30T10:19:04;6.70;65.89
75134;HTU21D;73631;44.326;40.200;2024-01-30T10:21:31;6.83;65.60
75134;HTU21D;73631;44.326;40.200;2024-01-30T10:23:57;6.93;65.46
75134;HTU21D;73631;44.326;40.200;2024-01-30T10:26:24;7.00;65.28
75134;HTU21D;73631;44.326;40.200;2024-01-30T10:28:50;7.03;65.17
75134;HTU21D;73631;44.326;40.200;2024-01-30T10:31:17;7.09;65.18
75134;HTU21D;73631;44.326;40.200;2024-01-30T10:33:45;7.18;65.10
75134;HTU21D;73631;44.326;40.200;2024-01-30T10:36:14;7.30;64.92
75134;HTU21D;73631;44.326;40.200;2024-01-30T10:38:42;7.37;64.71
75134;HTU21D;73631;44.326;40.200;2024-01-30T10:41:13;7.42;64.56
75134;HTU21D;73631;44.326;40.200;2024-01-30T10:43:41;7.52;64.56
75134;HTU21D;73631;44.326;40.200;2024-01-30T10:46:18;7.60;64.11
75134;HTU21D;73631;44.326;40.200;2024-01-30T10:48:58;7.62;63.91
75134;HTU21D;73631;44.326;40.200;2024-01-30T10:51:28;7.64;63.99
75134;HTU21D;73631;44.326;40.200;2024-01-30T10:53:56;7.65;64.03
75134;HTU21D;73631;44.326;40.200;2024-01-30T10:56:23;7.67;64.05
75134;HTU21D;73631;44.326;40.200;2024-01-30T10:58:51;7.72;63.96
75134;HTU21D;73631;44.326;40.200;2024-01-30T11:01:24;7.81;63.84
75134;HTU21D;73631;44.326;40.200;2024-01-30T11:03:52;7.85;63.74
75134;HTU21D;73631;44.326;40.200;2024-01-30T11:06:25;7.94;63.57
75134;HTU21D;73631;44.326;40.200;2024-01-30T11:09:05;8.03;63.24
75134;HTU21D;73631;44.326;40.200;2024-01-30T11:11:58;8.12;63.28
75134;HTU21D;73631;44.326;40.200;2024-01-30T11:14:29;8.21;63.29
75134;HTU21D;73631;44.326;40.200;2024-01-30T11:17:00;8.33;62.99
75134;HTU21D;73631;44.326;40.200;2024-01-30T11:19:35;8.38;62.61
75134;HTU21D;73631;44.326;40.200;2024-01-30T11:22:01;8.35;62.48
75134;HTU21D;73631;44.326;40.200;2024-01-30T11:24:28;8.38;62.64
75134;HTU21D;73631;44.326;40.200;2024-01-30T11:27:01;8.41;62.27
75134;HTU21D;73631;44.326;40.200;2024-01-30T11:29:29;8.45;62.40
75134;HTU21D;73631;44.326;40.200;2024-01-30T11:31:58;8.46;61.82
75134;HTU21D;73631;44.326;40.200;2024-01-30T11:34:25;8.43;61.91
75134;HTU21D;73631;44.326;40.200;2024-01-30T11:36:55;8.35;61.86
75134;HTU21D;73631;44.326;40.200;2024-01-30T11:39:25;8.23;61.79
75134;HTU21D;73631;44.326;40.200;2024-01-30T11:41:57;8.19;61.99
75134;HTU21D;73631;44.326;40.200;2024-01-30T11:44:29;8.18;62.12
75134;HTU21D;73631;44.326;40.200;2024-01-30T11:47:00;8.17;61.99
75134;HTU21D;73631;44.326;40.200;2024-01-30T11:49:26;8.15;61.83
75134;HTU21D;73631;44.326;40.200;2024-01-30T11:51:53;8.11;61.68
75134;HTU21D;73631;44.326;40.200;2024-01-30T11:54:21;8.07;61.62
75134;HTU21D;73631;44.326;40.200;2024-01-30T11:56:49;8.00;61.41
75134;HTU21D;73631;44.326;40.200;2024-01-30T11:59:17;7.88;61.46
75134;HTU21D;73631;44.326;40.200;2024-01-30T12:01:44;7.79;61.34
75134;HTU21D;73631;44.326;40.200;2024-01-30T12:04:11;7.74;61.57
75134;HTU21D;73631;44.326;40.200;2024-01-30T12:06:37;7.74;61.56
75134;HTU21D;73631;44.326;40.200;2024-01-30T12:09:04;7.70;61.37
75134;HTU21D;73631;44.326;40.200;2024-01-30T12:11:30;7.60;61.24
75134;HTU21D;73631;44.326;40.200;2024-01-30T12:13:57;7.50;60.96
75134;HTU21D;73631;44.326;40.200;2024-01-30T12:16:24;7.39;61.05
75134;HTU21D;73631;44.326;40.200;2024-01-30T12:18:59;7.32;60.94
75134;HTU21D;73631;44.326;40.200;2024-01-30T12:21:27;7.20;61.09
75134;HTU21D;73631;44.326;40.200;2024-01-30T12:23:53;7.09;61.10
75134;HTU21D;73631;44.326;40.200;2024-01-30T12:26:20;7.00;61.35
75134;HTU21D;73631;44.326;40.200;2024-01-30T12:28:50;6.97;61.22
75134;HTU21D;73631;44.326;40.200;2024-01-30T12:31:16;6.95;61.34
75134;HTU21D;73631;44.326;40.200;2024-01-30T12:33:42;6.96;61.34
75134;HTU21D;73631;44.326;40.200;2024-01-30T12:36:09;6.97;61.24
75134;HTU21D;73631;44.326;40.200;2024-01-30T12:38:37;6.95;61.15
75134;HTU21D;73631;44.326;40.200;2024-01-30T12:41:04;6.90;61.10
75134;HTU21D;73631;44.326;40.200;2024-01-30T12:43:32;6.88;61.21
75134;HTU21D;73631;44.326;40.200;2024-01-30T12:46:01;6.87;61.07
75134;HTU21D;73631;44.326;40.200;2024-01-30T12:48:29;6.86;61.10
75134;HTU21D;73631;44.326;40.200;2024-01-30T12:50:56;6.84;61.05
75134;HTU21D;73631;44.326;40.200;2024-01-30T12:53:23;6.78;60.82
75134;HTU21D;73631;44.326;40.200;2024-01-30T12:55:49;6.67;60.84
75134;HTU21D;73631;44.326;40.200;2024-01-30T12:58:16;6.60;60.91
75134;HTU21D;73631;44.326;40.200;2024-01-30T13:00:43;6.46;60.86
75134;HTU21D;73631;44.326;40.200;2024-01-30T13:03:10;6.37;60.99
75134;HTU21D;73631;44.326;40.200;2024-01-30T13:05:37;6.27;60.96
75134;HTU21D;73631;44.326;40.200;2024-01-30T13:08:04;6.17;61.03
75134;HTU21D;73631;44.326;40.200;2024-01-30T13:10:30;6.08;61.03
75134;HTU21D;73631;44.326;40.200;2024-01-30T13:12:57;5.99;61.09
75134;HTU21D;73631;44.326;40.200;2024-01-30T13:15:25;5.93;61.18
75134;HTU21D;73631;44.326;40.200;2024-01-30T13:18:02;5.86;61.19
75134;HTU21D;73631;44.326;40.200;2024-01-30T13:20:28;5.77;61.21
75134;HTU21D;73631;44.326;40.200;2024-01-30T13:22:55;5.68;61.28
75134;HTU21D;73631;44.326;40.200;2024-01-30T13:25:21;5.59;61.38
75134;HTU21D;73631;44.326;40.200;2024-01-30T13:27:47;5.50;61.44
75134;HTU21D;73631;44.326;40.200;2024-01-30T13:30:14;5.41;61.47
75134;HTU21D;73631;44.326;40.200;2024-01-30T13:32:40;5.36;61.54
75134;HTU21D;73631;44.326;40.200;2024-01-30T13:35:10;5.28;61.56
75134;HTU21D;73631;44.326;40.200;2024-01-30T13:37:36;5.23;61.58
75134;HTU21D;73631;44.326;40.200;2024-01-30T13:40:05;5.18;61.63
75134;HTU21D;73631;44.326;40.200;2024-01-30T13:42:38;5.12;61.65
75134;HTU21D;73631;44.326;40.200;2024-01-30T13:45:05;5.05;61.67
75134;HTU21D;73631;44.326;40.200;2024-01-30T13:47:33;4.95;61.73
75134;HTU21D;73631;44.326;40.200;2024-01-30T13:49:59;4.86;61.86
75134;HTU21D;73631;44.326;40.200;2024-01-30T13:52:26;4.76;61.92
75134;HTU21D;73631;44.326;40.200;2024-01-30T13:54:53;4.66;61.99
75134;HTU21D;73631;44.326;40.200;2024-01-30T13:57:19;4.59;61.96
75134;HTU21D;73631;44.326;40.200;2024-01-30T13:59:46;4.49;62.05
75134;HTU21D;73631;44.326;40.200;2024-01-30T14:02:12;4.38;62.07
75134;HTU21D;73631;44.326;40.200;2024-01-30T14:04:39;4.27;62.10
75134;HTU21D;73631;44.326;40.200;2024-01-30T14:07:06;4.15;62.17
75134;HTU21D;73631;44.326;40.200;2024-01-30T14:09:32;4.06;62.18
75134;HTU21D;73631;44.326;40.200;2024-01-30T14:12:00;3.95;62.25
75134;HTU21D;73631;44.326;40.200;2024-01-30T14:14:26;3.87;62.33
75134;HTU21D;73631;44.326;40.200;2024-01-30T14:16:53;3.76;62.34
75134;HTU21D;73631;44.326;40.200;2024-01-30T14:19:20;3.68;62.47
75134;HTU21D;73631;44.326;40.200;2024-01-30T14:21:46;3.57;62.61
75134;HTU21D;73631;44.326;40.200;2024-01-30T14:24:12;3.50;62.69
75134;HTU21D;73631;44.326;40.200;2024-01-30T14:26:39;3.42;62.71
75134;HTU21D;73631;44.326;40.200;2024-01-30T14:29:05;3.33;62.73
75134;HTU21D;73631;44.326;40.200;2024-01-30T14:31:32;3.27;62.73
75134;HTU21D;73631;44.326;40.200;2024-01-30T14:33:58;3.20;62.70
75134;HTU21D;73631;44.326;40.200;2024-01-30T14:36:25;3.10;62.68
75134;HTU21D;73631;44.326;40.200;2024-01-30T14:38:54;3.02;62.66
75134;HTU21D;73631;44.326;40.200;2024-01-30T14:41:21;2.95;62.70
75134;HTU21D;73631;44.326;40.200;2024-01-30T14:43:47;2.86;62.72
75134;HTU21D;73631;44.326;40.200;2024-01-30T14:46:14;2.78;62.76
75134;HTU21D;73631;44.326;40.200;2024-01-30T14:48:41;2.69;62.82
75134;HTU21D;73631;44.326;40.200;2024-01-30T14:51:09;2.60;62.95
75134;HTU21D;73631;44.326;40.200;2024-01-30T14:53:35;2.54;63.02
75134;HTU21D;73631;44.326;40.200;2024-01-30T14:56:03;2.50;63.06
75134;HTU21D;73631;44.326;40.200;2024-01-30T14:58:29;2.43;63.08
75134;HTU21D;73631;44.326;40.200;2024-01-30T15:00:56;2.36;63.13
75134;HTU21D;73631;44.326;40.200;2024-01-30T15:03:22;2.30;63.15
75134;HTU21D;73631;44.326;40.200;2024-01-30T15:05:49;2.23;63.17
75134;HTU21D;73631;44.326;40.200;2024-01-30T15:08:15;2.15;63.19
75134;HTU21D;73631;44.326;40.200;2024-01-30T15:10:41;2.08;63.26